Meteorología y climatología de Navarra
Datos de la estación - Meteo Navarra

Estación de Goizueta GN

Altitud 142 m.


Datos desde el 02/08/2020 hasta el 03/08/2020 en horario solar
Los datos son PROVISIONALES

Anterior Página 1 de 1 Siguiente Descargar: Formato para Excel 2000 o superior   Formato csv   Formato para OpenOffice Calc
Fecha Temperatura Humedad relativa Radiación global Insolación Precipitación Vel. viento 10 m Vel. viento 10 m Dir. viento 10 m
ºC % W/m² s l/m² m/s km/h º
02/08/2020 0:00 18.8 99 - - - - 0.0 - - - - - -
02/08/2020 0:10 18.6 99 - - - - 0.1 - - - - - -
02/08/2020 0:20 18.5 99 - - - - 0.0 - - - - - -
02/08/2020 0:30 18.5 99 - - - - 0.0 - - - - - -
02/08/2020 0:40 18.5 99 - - - - 0.0 - - - - - -
02/08/2020 0:50 18.4 99 - - - - 0.0 - - - - - -
02/08/2020 1:00 18.4 99 - - - - 0.0 - - - - - -
02/08/2020 1:10 18.4 99 - - - - 0.0 - - - - - -
02/08/2020 1:20 18.3 99 - - - - 0.0 - - - - - -
02/08/2020 1:30 18.1 98 - - - - 0.0 - - - - - -
02/08/2020 1:40 18.0 98 - - - - 0.1 - - - - - -
02/08/2020 1:50 18.1 98 - - - - 0.0 - - - - - -
02/08/2020 2:00 18.1 98 - - - - 0.0 - - - - - -
02/08/2020 2:10 18.1 98 - - - - 0.0 - - - - - -
02/08/2020 2:20 18.1 99 - - - - 0.1 - - - - - -
02/08/2020 2:30 18.0 99 - - - - 0.0 - - - - - -
02/08/2020 2:40 18.1 99 - - - - 0.0 - - - - - -
02/08/2020 2:50 18.1 99 - - - - 0.0 - - - - - -
02/08/2020 3:00 18.0 99 - - - - 0.0 - - - - - -
02/08/2020 3:10 18.0 99 - - - - 0.0 - - - - - -
02/08/2020 3:20 18.0 99 - - - - 0.1 - - - - - -
02/08/2020 3:30 17.9 99 - - - - 0.1 - - - - - -
02/08/2020 3:40 17.9 99 - - - - 0.0 - - - - - -
02/08/2020 3:50 17.9 99 - - - - 0.0 - - - - - -
02/08/2020 4:00 17.8 99 - - - - 0.0 - - - - - -
02/08/2020 4:10 17.7 99 - - - - 0.1 - - - - - -
02/08/2020 4:20 17.7 99 - - - - 0.1 - - - - - -
02/08/2020 4:30 17.7 99 - - - - 0.2 - - - - - -
02/08/2020 4:40 17.7 99 - - - - 0.0 - - - - - -
02/08/2020 4:50 17.7 99 - - - - 0.1 - - - - - -
02/08/2020 5:00 17.8 99 - - - - 0.1 - - - - - -
02/08/2020 5:10 17.7 99 - - - - 0.2 - - - - - -
02/08/2020 5:20 17.7 99 - - - - 0.0 - - - - - -
02/08/2020 5:30 17.7 99 - - - - 0.0 - - - - - -
02/08/2020 5:40 17.6 99 - - - - 0.0 - - - - - -
02/08/2020 5:50 17.7 99 - - - - 0.0 - - - - - -
02/08/2020 6:00 17.7 99 - - - - 0.0 - - - - - -
02/08/2020 6:10 17.7 99 - - - - 0.1 - - - - - -
02/08/2020 6:20 17.7 99 - - - - 0.0 - - - - - -
02/08/2020 6:30 17.7 99 - - - - 0.0 - - - - - -
02/08/2020 6:40 17.7 99 - - - - 0.0 - - - - - -
02/08/2020 6:50 17.9 99 - - - - 0.0 - - - - - -
02/08/2020 7:00 17.9 99 - - - - 0.0 - - - - - -
02/08/2020 7:10 17.9 98 - - - - 0.0 - - - - - -
02/08/2020 7:20 18.0 98 - - - - 0.0 - - - - - -
02/08/2020 7:30 18.1 98 - - - - 0.0 - - - - - -
02/08/2020 7:40 18.1 98 - - - - 0.0 - - - - - -
02/08/2020 7:50 18.4 97 - - - - 0.0 - - - - - -
02/08/2020 8:00 18.5 96 - - - - 0.0 - - - - - -
02/08/2020 8:10 18.8 93 - - - - 0.0 - - - - - -
02/08/2020 8:20 19.2 91 - - - - 0.0 - - - - - -
02/08/2020 8:30 19.3 91 - - - - 0.0 - - - - - -
02/08/2020 8:40 19.4 91 - - - - 0.0 - - - - - -
02/08/2020 8:50 19.8 87 - - - - 0.0 - - - - - -
02/08/2020 9:00 20.0 83 - - - - 0.0 - - - - - -
02/08/2020 9:10 20.4 81 - - - - 0.0 - - - - - -
02/08/2020 9:20 20.5 79 - - - - 0.0 - - - - - -
02/08/2020 9:30 20.2 83 - - - - 0.0 - - - - - -
02/08/2020 9:40 19.9 86 - - - - 0.0 - - - - - -
02/08/2020 9:50 19.4 91 - - - - 0.2 - - - - - -
02/08/2020 10:00 18.7 92 - - - - 0.6 - - - - - -
02/08/2020 10:10 18.3 91 - - - - 0.8 - - - - - -
02/08/2020 10:20 18.1 93 - - - - 0.4 - - - - - -
02/08/2020 10:30 18.1 95 - - - - 0.0 - - - - - -
02/08/2020 10:40 18.0 95 - - - - 0.1 - - - - - -
02/08/2020 10:50 17.9 95 - - - - 0.0 - - - - - -
02/08/2020 11:00 18.0 96 - - - - 0.0 - - - - - -
02/08/2020 11:10 17.9 95 - - - - 0.1 - - - - - -
02/08/2020 11:20 18.1 96 - - - - 0.1 - - - - - -
02/08/2020 11:30 18.5 94 - - - - 0.0 - - - - - -
02/08/2020 11:40 19.2 90 - - - - 0.0 - - - - - -
02/08/2020 11:50 19.6 89 - - - - 0.0 - - - - - -
02/08/2020 12:00 19.3 91 - - - - 0.0 - - - - - -
02/08/2020 12:10 19.3 92 - - - - 0.0 - - - - - -
02/08/2020 12:20 19.2 94 - - - - 0.0 - - - - - -
02/08/2020 12:30 19.3 93 - - - - 0.0 - - - - - -
02/08/2020 12:40 19.7 90 - - - - 0.0 - - - - - -
02/08/2020 12:50 20.1 88 - - - - 0.0 - - - - - -
02/08/2020 13:00 20.5 84 - - - - 0.0 - - - - - -
02/08/2020 13:10 20.5 82 - - - - 0.0 - - - - - -
02/08/2020 13:20 20.3 83 - - - - 0.0 - - - - - -
02/08/2020 13:30 20.0 85 - - - - 0.0 - - - - - -
02/08/2020 13:40 19.9 85 - - - - 0.0 - - - - - -
02/08/2020 13:50 20.0 84 - - - - 0.0 - - - - - -
02/08/2020 14:00 20.0 84 - - - - 0.0 - - - - - -
02/08/2020 14:10 20.1 83 - - - - 0.0 - - - - - -
02/08/2020 14:20 20.2 82 - - - - 0.0 - - - - - -
02/08/2020 14:30 20.4 80 - - - - 0.0 - - - - - -
02/08/2020 14:40 20.2 80 - - - - 0.0 - - - - - -
02/08/2020 14:50 20.5 80 - - - - 0.0 - - - - - -
02/08/2020 15:00 20.7 78 - - - - 0.0 - - - - - -
02/08/2020 15:10 20.8 77 - - - - 0.0 - - - - - -
02/08/2020 15:20 20.6 77 - - - - 0.0 - - - - - -
02/08/2020 15:30 20.8 77 - - - - 0.0 - - - - - -
02/08/2020 15:40 20.8 78 - - - - 0.0 - - - - - -
02/08/2020 15:50 20.3 81 - - - - 0.0 - - - - - -
02/08/2020 16:00 19.4 87 - - - - 0.3 - - - - - -
02/08/2020 16:10 18.8 91 - - - - 0.0 - - - - - -
02/08/2020 16:20 19.1 91 - - - - 0.0 - - - - - -
02/08/2020 16:30 19.5 87 - - - - 0.0 - - - - - -
02/08/2020 16:40 19.4 88 - - - - 0.0 - - - - - -
02/08/2020 16:50 19.6 88 - - - - 0.0 - - - - - -
02/08/2020 17:00 20.0 85 - - - - 0.0 - - - - - -
02/08/2020 17:10 20.1 87 - - - - 0.0 - - - - - -
02/08/2020 17:20 19.8 88 - - - - 0.0 - - - - - -
02/08/2020 17:30 19.6 90 - - - - 0.0 - - - - - -
02/08/2020 17:40 19.4 87 - - - - 0.0 - - - - - -
02/08/2020 17:50 19.4 85 - - - - 0.0 - - - - - -
02/08/2020 18:00 19.3 86 - - - - 0.0 - - - - - -
02/08/2020 18:10 19.2 88 - - - - 0.0 - - - - - -
02/08/2020 18:20 19.1 91 - - - - 0.0 - - - - - -
02/08/2020 18:30 19.0 90 - - - - 0.0 - - - - - -
02/08/2020 18:40 18.9 91 - - - - 0.0 - - - - - -
02/08/2020 18:50 18.6 92 - - - - 0.0 - - - - - -
02/08/2020 19:00 18.4 93 - - - - 0.0 - - - - - -
02/08/2020 19:10 18.1 94 - - - - 0.0 - - - - - -
02/08/2020 19:20 17.8 94 - - - - 0.1 - - - - - -
02/08/2020 19:30 17.6 95 - - - - 0.4 - - - - - -
02/08/2020 19:40 17.6 96 - - - - 0.0 - - - - - -
02/08/2020 19:50 17.4 96 - - - - 0.0 - - - - - -
02/08/2020 20:00 17.3 97 - - - - 0.0 - - - - - -
02/08/2020 20:10 17.0 97 - - - - 0.0 - - - - - -
02/08/2020 20:20 16.9 98 - - - - 0.0 - - - - - -
02/08/2020 20:30 16.9 98 - - - - 0.0 - - - - - -
02/08/2020 20:40 16.8 98 - - - - 0.0 - - - - - -
02/08/2020 20:50 16.9 98 - - - - 0.0 - - - - - -
02/08/2020 21:00 16.8 98 - - - - 0.0 - - - - - -
02/08/2020 21:10 16.8 98 - - - - 0.0 - - - - - -
02/08/2020 21:20 16.6 98 - - - - 0.0 - - - - - -
02/08/2020 21:30 16.7 98 - - - - 0.0 - - - - - -
02/08/2020 21:40 16.6 98 - - - - 0.0 - - - - - -
02/08/2020 21:50 16.5 99 - - - - 0.0 - - - - - -
02/08/2020 22:00 16.6 99 - - - - 0.0 - - - - - -
02/08/2020 22:10 16.5 99 - - - - 0.0 - - - - - -
02/08/2020 22:20 16.4 99 - - - - 0.0 - - - - - -
02/08/2020 22:30 16.3 99 - - - - 0.0 - - - - - -
02/08/2020 22:40 16.1 99 - - - - 0.0 - - - - - -
02/08/2020 22:50 16.1 99 - - - - 0.0 - - - - - -
02/08/2020 23:00 16.1 99 - - - - 0.0 - - - - - -
02/08/2020 23:10 16.0 99 - - - - 0.0 - - - - - -
02/08/2020 23:20 15.9 99 - - - - 0.0 - - - - - -
02/08/2020 23:30 15.9 99 - - - - 0.0 - - - - - -
02/08/2020 23:40 15.9 99 - - - - 0.0 - - - - - -
02/08/2020 23:50 15.8 99 - - - - 0.0 - - - - - -
Anterior Página 1 de 1 Siguiente

NOTA: Tipo de datos según el color:
   - Valores diarios o 10 minutos correctos
   - Valores diarios calculados a partir de un número de datos 10 minutos menor que 144 y mayor que 120, o de un número de datos semihorarios menor que 48 y mayor que 40 (caso de las estaciones de INTIA y del Ministerio)
   - Valores diez minutos estimados


Contacto        Enlaces        Aviso legal